sensor_id;sensor_type;location;lat;lon;timestamp;P1;durP1;ratioP1;P2;durP2;ratioP2
41546;SDS011;27271;45.412;10.852;2023-03-12T00:01:37;5.32;;;1.83;;
41546;SDS011;27271;45.412;10.852;2023-03-12T00:04:54;6.78;;;2.67;;
41546;SDS011;27271;45.412;10.852;2023-03-12T00:08:16;9.35;;;1.92;;
41546;SDS011;27271;45.412;10.852;2023-03-12T00:11:38;6.13;;;1.80;;
41546;SDS011;27271;45.412;10.852;2023-03-12T00:15:00;4.60;;;1.85;;
41546;SDS011;27271;45.412;10.852;2023-03-12T00:18:22;4.65;;;2.00;;
41546;SDS011;27271;45.412;10.852;2023-03-12T00:21:45;5.53;;;2.00;;
41546;SDS011;27271;45.412;10.852;2023-03-12T00:25:09;5.40;;;1.85;;
41546;SDS011;27271;45.412;10.852;2023-03-12T00:28:33;3.30;;;1.83;;
41546;SDS011;27271;45.412;10.852;2023-03-12T00:31:56;5.10;;;1.75;;
41546;SDS011;27271;45.412;10.852;2023-03-12T00:35:18;5.57;;;1.83;;
41546;SDS011;27271;45.412;10.852;2023-03-12T00:38:40;4.13;;;1.63;;
41546;SDS011;27271;45.412;10.852;2023-03-12T00:42:02;3.22;;;1.42;;
41546;SDS011;27271;45.412;10.852;2023-03-12T00:45:24;3.20;;;1.50;;
41546;SDS011;27271;45.412;10.852;2023-03-12T00:48:46;3.13;;;1.35;;
41546;SDS011;27271;45.412;10.852;2023-03-12T00:52:08;5.85;;;1.67;;
41546;SDS011;27271;45.412;10.852;2023-03-12T00:55:30;4.13;;;2.10;;
41546;SDS011;27271;45.412;10.852;2023-03-12T00:58:53;5.78;;;1.92;;
41546;SDS011;27271;45.412;10.852;2023-03-12T01:02:15;6.25;;;2.60;;
41546;SDS011;27271;45.412;10.852;2023-03-12T01:05:37;4.65;;;2.10;;
41546;SDS011;27271;45.412;10.852;2023-03-12T01:09:02;7.55;;;3.00;;
41546;SDS011;27271;45.412;10.852;2023-03-12T01:12:25;6.50;;;2.55;;
41546;SDS011;27271;45.412;10.852;2023-03-12T01:15:47;6.03;;;2.45;;
41546;SDS011;27271;45.412;10.852;2023-03-12T01:19:09;9.35;;;2.78;;
41546;SDS011;27271;45.412;10.852;2023-03-12T01:22:33;8.95;;;2.58;;
41546;SDS011;27271;45.412;10.852;2023-03-12T01:25:56;4.25;;;2.63;;
41546;SDS011;27271;45.412;10.852;2023-03-12T01:29:19;5.05;;;2.70;;
41546;SDS011;27271;45.412;10.852;2023-03-12T01:32:41;5.97;;;2.80;;
41546;SDS011;27271;45.412;10.852;2023-03-12T01:36:04;5.50;;;3.00;;
41546;SDS011;27271;45.412;10.852;2023-03-12T01:39:37;9.38;;;3.50;;
41546;SDS011;27271;45.412;10.852;2023-03-12T01:43:10;4.90;;;2.65;;
41546;SDS011;27271;45.412;10.852;2023-03-12T01:46:43;4.07;;;2.67;;
41546;SDS011;27271;45.412;10.852;2023-03-12T01:50:13;10.23;;;3.03;;
41546;SDS011;27271;45.412;10.852;2023-03-12T01:53:35;5.80;;;3.42;;
41546;SDS011;27271;45.412;10.852;2023-03-12T01:56:59;7.43;;;3.45;;
41546;SDS011;27271;45.412;10.852;2023-03-12T02:00:24;3.75;;;2.85;;
41546;SDS011;27271;45.412;10.852;2023-03-12T02:03:50;8.32;;;3.25;;
41546;SDS011;27271;45.412;10.852;2023-03-12T02:07:15;8.88;;;3.83;;
41546;SDS011;27271;45.412;10.852;2023-03-12T02:10:38;9.40;;;3.80;;
41546;SDS011;27271;45.412;10.852;2023-03-12T02:14:00;8.55;;;3.33;;
41546;SDS011;27271;45.412;10.852;2023-03-12T02:17:23;7.03;;;3.53;;
41546;SDS011;27271;45.412;10.852;2023-03-12T02:20:53;6.95;;;3.67;;
41546;SDS011;27271;45.412;10.852;2023-03-12T02:28:19;8.80;;;3.55;;
41546;SDS011;27271;45.412;10.852;2023-03-12T02:31:46;7.20;;;3.10;;
41546;SDS011;27271;45.412;10.852;2023-03-12T02:35:12;7.93;;;3.78;;
41546;SDS011;27271;45.412;10.852;2023-03-12T02:42:02;8.15;;;4.07;;
41546;SDS011;27271;45.412;10.852;2023-03-12T02:45:24;6.35;;;3.47;;
41546;SDS011;27271;45.412;10.852;2023-03-12T02:48:47;7.47;;;4.47;;
41546;SDS011;27271;45.412;10.852;2023-03-12T02:52:09;5.88;;;3.45;;
41546;SDS011;27271;45.412;10.852;2023-03-12T02:55:32;5.75;;;3.53;;
41546;SDS011;27271;45.412;10.852;2023-03-12T02:58:54;9.68;;;3.83;;
41546;SDS011;27271;45.412;10.852;2023-03-12T03:02:17;7.55;;;3.40;;
41546;SDS011;27271;45.412;10.852;2023-03-12T03:05:39;7.97;;;3.28;;
41546;SDS011;27271;45.412;10.852;2023-03-12T03:09:01;8.85;;;3.95;;
41546;SDS011;27271;45.412;10.852;2023-03-12T03:12:24;6.45;;;3.92;;
41546;SDS011;27271;45.412;10.852;2023-03-12T03:15:46;8.88;;;4.10;;
41546;SDS011;27271;45.412;10.852;2023-03-12T03:19:08;8.27;;;3.35;;
41546;SDS011;27271;45.412;10.852;2023-03-12T03:22:31;7.38;;;4.05;;
41546;SDS011;27271;45.412;10.852;2023-03-12T03:25:53;4.63;;;3.63;;
41546;SDS011;27271;45.412;10.852;2023-03-12T03:29:16;11.80;;;4.07;;
41546;SDS011;27271;45.412;10.852;2023-03-12T03:32:38;7.13;;;3.42;;
41546;SDS011;27271;45.412;10.852;2023-03-12T03:36:02;7.10;;;3.22;;
41546;SDS011;27271;45.412;10.852;2023-03-12T03:39:29;4.18;;;2.97;;
41546;SDS011;27271;45.412;10.852;2023-03-12T03:42:51;4.50;;;2.78;;
41546;SDS011;27271;45.412;10.852;2023-03-12T03:46:13;6.38;;;3.22;;
41546;SDS011;27271;45.412;10.852;2023-03-12T03:49:40;5.03;;;2.80;;
41546;SDS011;27271;45.412;10.852;2023-03-12T03:53:04;6.45;;;2.83;;
41546;SDS011;27271;45.412;10.852;2023-03-12T03:56:27;6.82;;;2.85;;
41546;SDS011;27271;45.412;10.852;2023-03-12T03:59:51;5.03;;;3.30;;
41546;SDS011;27271;45.412;10.852;2023-03-12T04:03:13;6.43;;;2.50;;
41546;SDS011;27271;45.412;10.852;2023-03-12T04:06:35;9.23;;;3.22;;
41546;SDS011;27271;45.412;10.852;2023-03-12T04:10:00;5.20;;;3.05;;
41546;SDS011;27271;45.412;10.852;2023-03-12T04:13:22;6.88;;;2.35;;
41546;SDS011;27271;45.412;10.852;2023-03-12T04:16:44;5.88;;;2.47;;
41546;SDS011;27271;45.412;10.852;2023-03-12T04:20:06;3.70;;;1.90;;
41546;SDS011;27271;45.412;10.852;2023-03-12T04:23:30;2.58;;;1.83;;
41546;SDS011;27271;45.412;10.852;2023-03-12T04:26:53;5.28;;;1.92;;
41546;SDS011;27271;45.412;10.852;2023-03-12T04:30:15;4.22;;;2.35;;
41546;SDS011;27271;45.412;10.852;2023-03-12T04:33:38;4.63;;;2.45;;
41546;SDS011;27271;45.412;10.852;2023-03-12T04:37:02;5.28;;;2.08;;
41546;SDS011;27271;45.412;10.852;2023-03-12T04:40:25;3.40;;;1.85;;
41546;SDS011;27271;45.412;10.852;2023-03-12T04:43:47;9.25;;;2.60;;
41546;SDS011;27271;45.412;10.852;2023-03-12T04:47:10;3.42;;;2.17;;
41546;SDS011;27271;45.412;10.852;2023-03-12T04:50:32;2.90;;;1.83;;
41546;SDS011;27271;45.412;10.852;2023-03-12T04:53:54;3.65;;;2.20;;
41546;SDS011;27271;45.412;10.852;2023-03-12T04:57:17;3.58;;;2.10;;
41546;SDS011;27271;45.412;10.852;2023-03-12T05:00:39;3.72;;;2.10;;
41546;SDS011;27271;45.412;10.852;2023-03-12T05:04:03;3.00;;;2.10;;
41546;SDS011;27271;45.412;10.852;2023-03-12T05:07:25;4.57;;;2.10;;
41546;SDS011;27271;45.412;10.852;2023-03-12T05:10:49;3.13;;;1.95;;
41546;SDS011;27271;45.412;10.852;2023-03-12T05:14:11;2.42;;;1.90;;
41546;SDS011;27271;45.412;10.852;2023-03-12T05:17:34;3.95;;;2.05;;
41546;SDS011;27271;45.412;10.852;2023-03-12T05:20:59;2.85;;;2.20;;
41546;SDS011;27271;45.412;10.852;2023-03-12T05:24:22;4.03;;;2.20;;
41546;SDS011;27271;45.412;10.852;2023-03-12T05:27:45;3.97;;;2.45;;
41546;SDS011;27271;45.412;10.852;2023-03-12T05:31:08;5.35;;;2.45;;
41546;SDS011;27271;45.412;10.852;2023-03-12T05:34:31;3.95;;;2.10;;
41546;SDS011;27271;45.412;10.852;2023-03-12T05:37:55;7.57;;;3.50;;
41546;SDS011;27271;45.412;10.852;2023-03-12T05:41:21;3.33;;;2.45;;
41546;SDS011;27271;45.412;10.852;2023-03-12T05:44:52;3.25;;;2.08;;
41546;SDS011;27271;45.412;10.852;2023-03-12T05:48:15;4.97;;;3.05;;
41546;SDS011;27271;45.412;10.852;2023-03-12T05:51:38;4.82;;;2.83;;
41546;SDS011;27271;45.412;10.852;2023-03-12T05:55:01;4.00;;;2.10;;
41546;SDS011;27271;45.412;10.852;2023-03-12T05:58:24;5.72;;;2.22;;
41546;SDS011;27271;45.412;10.852;2023-03-12T06:01:46;3.55;;;2.28;;
41546;SDS011;27271;45.412;10.852;2023-03-12T06:05:10;4.82;;;2.33;;
41546;SDS011;27271;45.412;10.852;2023-03-12T06:08:33;4.18;;;2.33;;
41546;SDS011;27271;45.412;10.852;2023-03-12T06:11:55;4.70;;;2.35;;
41546;SDS011;27271;45.412;10.852;2023-03-12T06:15:17;6.15;;;2.45;;
41546;SDS011;27271;45.412;10.852;2023-03-12T06:18:40;3.70;;;2.63;;
41546;SDS011;27271;45.412;10.852;2023-03-12T06:22:03;5.18;;;2.88;;
41546;SDS011;27271;45.412;10.852;2023-03-12T06:25:26;6.80;;;2.30;;
41546;SDS011;27271;45.412;10.852;2023-03-12T06:28:48;4.80;;;2.38;;
41546;SDS011;27271;45.412;10.852;2023-03-12T06:32:12;6.00;;;2.45;;
41546;SDS011;27271;45.412;10.852;2023-03-12T06:35:34;4.68;;;2.40;;
41546;SDS011;27271;45.412;10.852;2023-03-12T06:38:56;4.97;;;2.78;;
41546;SDS011;27271;45.412;10.852;2023-03-12T06:42:18;3.22;;;2.25;;
41546;SDS011;27271;45.412;10.852;2023-03-12T06:45:41;6.45;;;2.35;;
41546;SDS011;27271;45.412;10.852;2023-03-12T06:49:03;3.88;;;2.78;;
41546;SDS011;27271;45.412;10.852;2023-03-12T06:52:25;6.47;;;2.60;;
41546;SDS011;27271;45.412;10.852;2023-03-12T06:55:48;4.13;;;2.38;;
41546;SDS011;27271;45.412;10.852;2023-03-12T06:59:11;5.32;;;2.42;;
41546;SDS011;27271;45.412;10.852;2023-03-12T07:02:33;4.20;;;2.40;;
41546;SDS011;27271;45.412;10.852;2023-03-12T07:05:55;5.18;;;2.58;;
41546;SDS011;27271;45.412;10.852;2023-03-12T07:09:18;5.53;;;2.83;;
41546;SDS011;27271;45.412;10.852;2023-03-12T07:12:40;5.13;;;2.40;;
41546;SDS011;27271;45.412;10.852;2023-03-12T07:16:02;4.25;;;2.50;;
41546;SDS011;27271;45.412;10.852;2023-03-12T07:19:25;3.10;;;2.42;;
41546;SDS011;27271;45.412;10.852;2023-03-12T07:22:47;4.00;;;2.45;;
41546;SDS011;27271;45.412;10.852;2023-03-12T07:26:10;4.75;;;2.70;;
41546;SDS011;27271;45.412;10.852;2023-03-12T07:29:34;3.58;;;2.22;;
41546;SDS011;27271;45.412;10.852;2023-03-12T07:32:56;6.90;;;2.28;;
41546;SDS011;27271;45.412;10.852;2023-03-12T07:36:18;3.95;;;2.80;;
41546;SDS011;27271;45.412;10.852;2023-03-12T07:39:44;4.55;;;2.28;;
41546;SDS011;27271;45.412;10.852;2023-03-12T07:43:08;3.67;;;2.55;;
41546;SDS011;27271;45.412;10.852;2023-03-12T07:46:34;3.90;;;2.60;;
41546;SDS011;27271;45.412;10.852;2023-03-12T07:49:57;3.33;;;2.38;;
41546;SDS011;27271;45.412;10.852;2023-03-12T07:53:19;2.80;;;2.47;;
41546;SDS011;27271;45.412;10.852;2023-03-12T07:56:41;4.63;;;2.40;;
41546;SDS011;27271;45.412;10.852;2023-03-12T08:00:04;3.72;;;2.22;;
41546;SDS011;27271;45.412;10.852;2023-03-12T08:03:33;3.25;;;2.40;;
41546;SDS011;27271;45.412;10.852;2023-03-12T08:06:55;5.65;;;2.70;;
41546;SDS011;27271;45.412;10.852;2023-03-12T08:10:18;4.53;;;2.50;;
41546;SDS011;27271;45.412;10.852;2023-03-12T08:13:42;6.82;;;3.42;;
41546;SDS011;27271;45.412;10.852;2023-03-12T08:17:04;7.13;;;2.78;;
41546;SDS011;27271;45.412;10.852;2023-03-12T08:20:26;3.72;;;2.50;;
41546;SDS011;27271;45.412;10.852;2023-03-12T08:23:48;3.72;;;2.40;;
41546;SDS011;27271;45.412;10.852;2023-03-12T08:27:10;3.15;;;2.60;;
41546;SDS011;27271;45.412;10.852;2023-03-12T08:30:33;4.25;;;2.47;;
41546;SDS011;27271;45.412;10.852;2023-03-12T08:33:55;4.32;;;2.35;;
41546;SDS011;27271;45.412;10.852;2023-03-12T08:37:17;4.32;;;2.60;;
41546;SDS011;27271;45.412;10.852;2023-03-12T08:40:39;7.53;;;2.38;;
41546;SDS011;27271;45.412;10.852;2023-03-12T08:44:01;4.15;;;2.50;;
41546;SDS011;27271;45.412;10.852;2023-03-12T08:47:23;2.95;;;2.50;;
41546;SDS011;27271;45.412;10.852;2023-03-12T08:50:45;4.28;;;2.38;;
41546;SDS011;27271;45.412;10.852;2023-03-12T08:54:07;2.55;;;2.20;;
41546;SDS011;27271;45.412;10.852;2023-03-12T08:57:29;4.75;;;2.40;;
41546;SDS011;27271;45.412;10.852;2023-03-12T09:00:52;2.88;;;1.77;;
41546;SDS011;27271;45.412;10.852;2023-03-12T09:04:15;5.28;;;2.63;;
41546;SDS011;27271;45.412;10.852;2023-03-12T09:07:39;3.70;;;2.47;;
41546;SDS011;27271;45.412;10.852;2023-03-12T09:11:02;4.00;;;2.38;;
41546;SDS011;27271;45.412;10.852;2023-03-12T09:14:24;3.03;;;2.47;;
41546;SDS011;27271;45.412;10.852;2023-03-12T09:18:06;4.25;;;2.53;;
41546;SDS011;27271;45.412;10.852;2023-03-12T09:21:29;2.80;;;2.28;;
41546;SDS011;27271;45.412;10.852;2023-03-12T09:24:51;5.40;;;2.67;;
41546;SDS011;27271;45.412;10.852;2023-03-12T09:28:13;4.30;;;2.80;;
41546;SDS011;27271;45.412;10.852;2023-03-12T09:31:37;5.68;;;2.55;;
41546;SDS011;27271;45.412;10.852;2023-03-12T09:34:59;4.32;;;3.22;;
41546;SDS011;27271;45.412;10.852;2023-03-12T09:38:21;4.47;;;2.42;;
41546;SDS011;27271;45.412;10.852;2023-03-12T09:41:43;4.57;;;2.30;;
41546;SDS011;27271;45.412;10.852;2023-03-12T09:45:10;4.03;;;2.40;;
41546;SDS011;27271;45.412;10.852;2023-03-12T09:48:39;2.60;;;2.13;;
41546;SDS011;27271;45.412;10.852;2023-03-12T09:52:02;3.28;;;2.47;;
41546;SDS011;27271;45.412;10.852;2023-03-12T09:55:38;4.18;;;2.40;;
41546;SDS011;27271;45.412;10.852;2023-03-12T09:59:02;4.28;;;2.67;;
41546;SDS011;27271;45.412;10.852;2023-03-12T10:06:17;4.68;;;2.42;;
41546;SDS011;27271;45.412;10.852;2023-03-12T10:28:39;4.10;;;1.95;;
41546;SDS011;27271;45.412;10.852;2023-03-12T10:35:42;2.83;;;2.10;;
41546;SDS011;27271;45.412;10.852;2023-03-12T10:39:14;2.53;;;1.98;;
41546;SDS011;27271;45.412;10.852;2023-03-12T10:42:39;2.83;;;1.90;;
41546;SDS011;27271;45.412;10.852;2023-03-12T10:49:46;2.75;;;1.83;;
41546;SDS011;27271;45.412;10.852;2023-03-12T10:53:25;4.30;;;2.47;;
41546;SDS011;27271;45.412;10.852;2023-03-12T10:56:50;3.00;;;2.38;;
41546;SDS011;27271;45.412;10.852;2023-03-12T11:00:17;2.45;;;2.25;;
41546;SDS011;27271;45.412;10.852;2023-03-12T11:03:47;3.60;;;2.58;;
41546;SDS011;27271;45.412;10.852;2023-03-12T11:14:28;3.58;;;2.15;;
41546;SDS011;27271;45.412;10.852;2023-03-12T11:17:50;11.95;;;4.55;;
41546;SDS011;27271;45.412;10.852;2023-03-12T11:21:14;4.20;;;2.53;;
41546;SDS011;27271;45.412;10.852;2023-03-12T11:24:54;4.72;;;2.10;;
41546;SDS011;27271;45.412;10.852;2023-03-12T11:28:20;5.35;;;2.22;;
41546;SDS011;27271;45.412;10.852;2023-03-12T12:12:44;2.42;;;2.13;;
41546;SDS011;27271;45.412;10.852;2023-03-12T12:16:22;2.63;;;1.77;;
41546;SDS011;27271;45.412;10.852;2023-03-12T12:27:26;5.97;;;2.22;;
41546;SDS011;27271;45.412;10.852;2023-03-12T12:31:02;5.38;;;2.63;;
41546;SDS011;27271;45.412;10.852;2023-03-12T12:34:51;3.88;;;2.58;;
41546;SDS011;27271;45.412;10.852;2023-03-12T12:41:52;3.70;;;2.08;;
41546;SDS011;27271;45.412;10.852;2023-03-12T12:45:18;4.85;;;2.53;;
41546;SDS011;27271;45.412;10.852;2023-03-12T12:48:47;7.10;;;2.10;;
41546;SDS011;27271;45.412;10.852;2023-03-12T12:52:16;4.50;;;2.78;;
41546;SDS011;27271;45.412;10.852;2023-03-12T12:55:45;4.47;;;2.22;;
41546;SDS011;27271;45.412;10.852;2023-03-12T13:02:41;6.18;;;2.47;;
41546;SDS011;27271;45.412;10.852;2023-03-12T13:06:08;4.05;;;2.47;;
41546;SDS011;27271;45.412;10.852;2023-03-12T13:09:38;7.55;;;2.97;;
41546;SDS011;27271;45.412;10.852;2023-03-12T13:13:20;5.78;;;2.20;;
41546;SDS011;27271;45.412;10.852;2023-03-12T13:16:47;5.40;;;2.50;;
41546;SDS011;27271;45.412;10.852;2023-03-12T13:27:30;4.47;;;2.20;;
41546;SDS011;27271;45.412;10.852;2023-03-12T13:30:58;5.80;;;2.60;;
41546;SDS011;27271;45.412;10.852;2023-03-12T13:41:12;5.20;;;2.40;;
41546;SDS011;27271;45.412;10.852;2023-03-12T13:45:03;4.72;;;2.65;;
41546;SDS011;27271;45.412;10.852;2023-03-12T13:48:52;7.03;;;2.70;;
41546;SDS011;27271;45.412;10.852;2023-03-12T13:52:23;3.65;;;2.60;;
41546;SDS011;27271;45.412;10.852;2023-03-12T13:56:09;4.55;;;2.47;;
41546;SDS011;27271;45.412;10.852;2023-03-12T13:59:33;8.25;;;3.08;;
41546;SDS011;27271;45.412;10.852;2023-03-12T14:02:58;7.68;;;2.50;;
41546;SDS011;27271;45.412;10.852;2023-03-12T14:06:26;5.75;;;2.50;;
41546;SDS011;27271;45.412;10.852;2023-03-12T14:16:55;4.68;;;2.33;;
41546;SDS011;27271;45.412;10.852;2023-03-12T14:20:20;5.30;;;2.45;;
41546;SDS011;27271;45.412;10.852;2023-03-12T14:23:45;10.75;;;3.20;;
41546;SDS011;27271;45.412;10.852;2023-03-12T14:27:17;6.88;;;2.53;;
41546;SDS011;27271;45.412;10.852;2023-03-12T14:34:32;7.32;;;3.28;;
41546;SDS011;27271;45.412;10.852;2023-03-12T14:41:46;3.42;;;2.47;;
41546;SDS011;27271;45.412;10.852;2023-03-12T14:45:18;5.05;;;2.25;;
41546;SDS011;27271;45.412;10.852;2023-03-12T14:48:44;5.05;;;2.35;;
41546;SDS011;27271;45.412;10.852;2023-03-12T14:52:11;7.57;;;2.70;;
41546;SDS011;27271;45.412;10.852;2023-03-12T14:55:34;5.68;;;2.55;;
41546;SDS011;27271;45.412;10.852;2023-03-12T14:58:58;5.38;;;2.40;;
41546;SDS011;27271;45.412;10.852;2023-03-12T15:02:22;6.32;;;2.75;;
41546;SDS011;27271;45.412;10.852;2023-03-12T15:05:45;8.90;;;3.83;;
41546;SDS011;27271;45.412;10.852;2023-03-12T15:09:13;2.95;;;2.30;;
41546;SDS011;27271;45.412;10.852;2023-03-12T15:12:42;7.78;;;2.90;;
41546;SDS011;27271;45.412;10.852;2023-03-12T15:16:06;5.50;;;2.72;;
41546;SDS011;27271;45.412;10.852;2023-03-12T15:19:32;5.53;;;2.60;;
41546;SDS011;27271;45.412;10.852;2023-03-12T15:23:00;5.47;;;2.28;;
41546;SDS011;27271;45.412;10.852;2023-03-12T15:26:26;3.50;;;2.40;;
41546;SDS011;27271;45.412;10.852;2023-03-12T15:29:51;6.53;;;3.58;;
41546;SDS011;27271;45.412;10.852;2023-03-12T15:36:46;8.13;;;3.08;;
41546;SDS011;27271;45.412;10.852;2023-03-12T15:40:18;6.28;;;2.75;;
41546;SDS011;27271;45.412;10.852;2023-03-12T15:43:42;5.78;;;3.05;;
41546;SDS011;27271;45.412;10.852;2023-03-12T15:47:18;6.03;;;2.85;;
41546;SDS011;27271;45.412;10.852;2023-03-12T15:50:43;5.75;;;3.17;;
41546;SDS011;27271;45.412;10.852;2023-03-12T15:57:35;6.07;;;2.90;;
41546;SDS011;27271;45.412;10.852;2023-03-12T16:01:14;6.10;;;3.28;;
41546;SDS011;27271;45.412;10.852;2023-03-12T16:04:38;5.90;;;2.70;;
41546;SDS011;27271;45.412;10.852;2023-03-12T16:11:41;5.68;;;2.47;;
41546;SDS011;27271;45.412;10.852;2023-03-12T16:15:04;4.60;;;2.53;;
41546;SDS011;27271;45.412;10.852;2023-03-12T16:18:27;6.93;;;3.33;;
41546;SDS011;27271;45.412;10.852;2023-03-12T16:21:49;5.22;;;2.58;;
41546;SDS011;27271;45.412;10.852;2023-03-12T16:25:11;5.30;;;2.55;;
41546;SDS011;27271;45.412;10.852;2023-03-12T16:28:34;5.00;;;2.33;;
41546;SDS011;27271;45.412;10.852;2023-03-12T16:31:56;8.27;;;2.50;;
41546;SDS011;27271;45.412;10.852;2023-03-12T16:35:19;7.10;;;3.25;;
41546;SDS011;27271;45.412;10.852;2023-03-12T16:38:42;6.80;;;2.78;;
41546;SDS011;27271;45.412;10.852;2023-03-12T16:42:11;6.07;;;2.30;;
41546;SDS011;27271;45.412;10.852;2023-03-12T16:45:38;6.63;;;3.00;;
41546;SDS011;27271;45.412;10.852;2023-03-12T16:49:04;5.38;;;2.35;;
41546;SDS011;27271;45.412;10.852;2023-03-12T16:52:26;4.70;;;2.17;;
41546;SDS011;27271;45.412;10.852;2023-03-12T16:55:55;5.68;;;2.15;;
41546;SDS011;27271;45.412;10.852;2023-03-12T16:59:24;5.97;;;2.20;;
41546;SDS011;27271;45.412;10.852;2023-03-12T17:02:48;5.15;;;2.95;;
41546;SDS011;27271;45.412;10.852;2023-03-12T17:06:17;2.83;;;1.92;;
41546;SDS011;27271;45.412;10.852;2023-03-12T17:09:41;4.32;;;2.80;;
41546;SDS011;27271;45.412;10.852;2023-03-12T17:13:03;7.78;;;3.35;;
41546;SDS011;27271;45.412;10.852;2023-03-12T17:16:26;5.18;;;2.80;;
41546;SDS011;27271;45.412;10.852;2023-03-12T17:19:48;7.68;;;3.40;;
41546;SDS011;27271;45.412;10.852;2023-03-12T17:23:12;9.73;;;2.70;;
41546;SDS011;27271;45.412;10.852;2023-03-12T17:26:34;8.52;;;3.50;;
41546;SDS011;27271;45.412;10.852;2023-03-12T17:29:56;8.55;;;2.95;;
41546;SDS011;27271;45.412;10.852;2023-03-12T17:33:18;7.60;;;3.30;;
41546;SDS011;27271;45.412;10.852;2023-03-12T17:36:40;7.00;;;3.10;;
41546;SDS011;27271;45.412;10.852;2023-03-12T17:40:02;6.53;;;3.17;;
41546;SDS011;27271;45.412;10.852;2023-03-12T17:43:29;6.38;;;2.83;;
41546;SDS011;27271;45.412;10.852;2023-03-12T17:46:51;5.13;;;2.65;;
41546;SDS011;27271;45.412;10.852;2023-03-12T17:50:20;4.72;;;2.65;;
41546;SDS011;27271;45.412;10.852;2023-03-12T17:53:42;5.13;;;2.85;;
41546;SDS011;27271;45.412;10.852;2023-03-12T17:57:04;9.63;;;3.83;;
41546;SDS011;27271;45.412;10.852;2023-03-12T18:00:26;5.78;;;2.80;;
41546;SDS011;27271;45.412;10.852;2023-03-12T18:03:48;6.97;;;2.88;;
41546;SDS011;27271;45.412;10.852;2023-03-12T18:07:11;6.55;;;2.25;;
41546;SDS011;27271;45.412;10.852;2023-03-12T18:10:33;5.43;;;2.20;;
41546;SDS011;27271;45.412;10.852;2023-03-12T18:13:57;9.75;;;2.80;;
41546;SDS011;27271;45.412;10.852;2023-03-12T18:17:19;5.63;;;2.80;;
41546;SDS011;27271;45.412;10.852;2023-03-12T18:20:42;7.10;;;3.00;;
41546;SDS011;27271;45.412;10.852;2023-03-12T18:24:04;7.22;;;3.58;;
41546;SDS011;27271;45.412;10.852;2023-03-12T18:27:35;9.02;;;2.70;;
41546;SDS011;27271;45.412;10.852;2023-03-12T18:30:57;7.70;;;3.15;;
41546;SDS011;27271;45.412;10.852;2023-03-12T18:34:19;10.70;;;3.38;;
41546;SDS011;27271;45.412;10.852;2023-03-12T18:37:43;10.15;;;2.95;;
41546;SDS011;27271;45.412;10.852;2023-03-12T18:41:07;5.65;;;2.30;;
41546;SDS011;27271;45.412;10.852;2023-03-12T18:44:30;5.25;;;2.55;;
41546;SDS011;27271;45.412;10.852;2023-03-12T18:47:52;6.18;;;3.35;;
41546;SDS011;27271;45.412;10.852;2023-03-12T18:51:14;5.78;;;3.15;;
41546;SDS011;27271;45.412;10.852;2023-03-12T18:54:36;8.95;;;3.63;;
41546;SDS011;27271;45.412;10.852;2023-03-12T18:57:59;7.80;;;3.22;;
41546;SDS011;27271;45.412;10.852;2023-03-12T19:01:21;11.75;;;3.88;;
41546;SDS011;27271;45.412;10.852;2023-03-12T19:04:43;8.43;;;3.15;;
41546;SDS011;27271;45.412;10.852;2023-03-12T19:08:05;6.55;;;3.05;;
41546;SDS011;27271;45.412;10.852;2023-03-12T19:11:27;10.60;;;3.70;;
41546;SDS011;27271;45.412;10.852;2023-03-12T19:14:49;7.13;;;2.90;;
41546;SDS011;27271;45.412;10.852;2023-03-12T19:18:11;7.88;;;3.40;;
41546;SDS011;27271;45.412;10.852;2023-03-12T19:21:33;6.53;;;3.47;;
41546;SDS011;27271;45.412;10.852;2023-03-12T19:24:55;14.07;;;3.75;;
41546;SDS011;27271;45.412;10.852;2023-03-12T19:28:17;8.70;;;3.63;;
41546;SDS011;27271;45.412;10.852;2023-03-12T19:31:39;15.10;;;4.53;;
41546;SDS011;27271;45.412;10.852;2023-03-12T19:35:01;10.75;;;4.43;;
41546;SDS011;27271;45.412;10.852;2023-03-12T19:38:24;9.60;;;5.93;;
41546;SDS011;27271;45.412;10.852;2023-03-12T19:41:46;11.00;;;4.88;;
41546;SDS011;27271;45.412;10.852;2023-03-12T19:45:09;10.20;;;4.85;;
41546;SDS011;27271;45.412;10.852;2023-03-12T19:48:31;6.53;;;3.90;;
41546;SDS011;27271;45.412;10.852;2023-03-12T19:51:53;9.90;;;4.35;;
41546;SDS011;27271;45.412;10.852;2023-03-12T19:55:15;7.63;;;3.85;;
41546;SDS011;27271;45.412;10.852;2023-03-12T19:58:37;8.35;;;3.83;;
41546;SDS011;27271;45.412;10.852;2023-03-12T20:01:59;8.52;;;4.10;;
41546;SDS011;27271;45.412;10.852;2023-03-12T20:05:21;11.68;;;5.25;;
41546;SDS011;27271;45.412;10.852;2023-03-12T20:08:44;9.07;;;5.40;;
41546;SDS011;27271;45.412;10.852;2023-03-12T20:12:06;10.18;;;4.35;;
41546;SDS011;27271;45.412;10.852;2023-03-12T20:15:28;11.25;;;4.43;;
41546;SDS011;27271;45.412;10.852;2023-03-12T20:18:50;14.80;;;4.53;;
41546;SDS011;27271;45.412;10.852;2023-03-12T20:22:12;13.35;;;5.40;;
41546;SDS011;27271;45.412;10.852;2023-03-12T20:25:37;14.27;;;5.07;;
41546;SDS011;27271;45.412;10.852;2023-03-12T20:29:01;9.18;;;4.68;;
41546;SDS011;27271;45.412;10.852;2023-03-12T20:32:24;9.57;;;5.03;;
41546;SDS011;27271;45.412;10.852;2023-03-12T20:35:46;9.52;;;5.55;;
41546;SDS011;27271;45.412;10.852;2023-03-12T20:39:10;10.10;;;5.95;;
41546;SDS011;27271;45.412;10.852;2023-03-12T20:42:33;24.15;;;18.67;;
41546;SDS011;27271;45.412;10.852;2023-03-12T20:45:55;14.75;;;6.38;;
41546;SDS011;27271;45.412;10.852;2023-03-12T20:49:17;9.43;;;5.55;;
41546;SDS011;27271;45.412;10.852;2023-03-12T20:52:39;8.95;;;5.03;;
41546;SDS011;27271;45.412;10.852;2023-03-12T20:56:02;11.85;;;5.95;;
41546;SDS011;27271;45.412;10.852;2023-03-12T20:59:27;10.10;;;4.78;;
41546;SDS011;27271;45.412;10.852;2023-03-12T21:02:49;11.43;;;4.57;;
41546;SDS011;27271;45.412;10.852;2023-03-12T21:06:11;11.60;;;4.75;;
41546;SDS011;27271;45.412;10.852;2023-03-12T21:09:33;8.85;;;4.45;;
41546;SDS011;27271;45.412;10.852;2023-03-12T21:12:55;9.13;;;4.40;;
41546;SDS011;27271;45.412;10.852;2023-03-12T21:16:18;8.80;;;4.65;;
41546;SDS011;27271;45.412;10.852;2023-03-12T21:19:40;9.35;;;4.15;;
41546;SDS011;27271;45.412;10.852;2023-03-12T21:23:03;10.20;;;4.10;;
41546;SDS011;27271;45.412;10.852;2023-03-12T21:26:26;14.95;;;5.60;;
41546;SDS011;27271;45.412;10.852;2023-03-12T21:29:48;10.57;;;4.88;;
41546;SDS011;27271;45.412;10.852;2023-03-12T21:33:10;8.18;;;4.80;;
41546;SDS011;27271;45.412;10.852;2023-03-12T21:36:32;9.50;;;4.28;;
41546;SDS011;27271;45.412;10.852;2023-03-12T21:39:54;7.90;;;4.60;;
41546;SDS011;27271;45.412;10.852;2023-03-12T21:43:21;7.65;;;4.47;;
41546;SDS011;27271;45.412;10.852;2023-03-12T21:46:43;12.55;;;5.75;;
41546;SDS011;27271;45.412;10.852;2023-03-12T21:50:05;14.75;;;4.13;;
41546;SDS011;27271;45.412;10.852;2023-03-12T21:53:28;7.50;;;4.50;;
41546;SDS011;27271;45.412;10.852;2023-03-12T21:56:51;11.55;;;4.70;;
41546;SDS011;27271;45.412;10.852;2023-03-12T22:00:13;9.88;;;4.53;;
41546;SDS011;27271;45.412;10.852;2023-03-12T22:03:35;8.23;;;4.65;;
41546;SDS011;27271;45.412;10.852;2023-03-12T22:06:58;8.77;;;4.38;;
41546;SDS011;27271;45.412;10.852;2023-03-12T22:10:20;5.97;;;4.20;;
41546;SDS011;27271;45.412;10.852;2023-03-12T22:13:43;6.28;;;4.38;;
41546;SDS011;27271;45.412;10.852;2023-03-12T22:17:05;6.95;;;4.20;;
41546;SDS011;27271;45.412;10.852;2023-03-12T22:20:27;11.60;;;4.75;;
41546;SDS011;27271;45.412;10.852;2023-03-12T22:23:50;9.60;;;4.97;;
41546;SDS011;27271;45.412;10.852;2023-03-12T22:27:13;8.65;;;4.43;;
41546;SDS011;27271;45.412;10.852;2023-03-12T22:30:35;10.05;;;4.93;;